createdAt,value
2023-04-22T00:07:05.681Z,11.19
2023-04-22T00:22:07.371Z,9.71
2023-04-22T00:37:09.025Z,10.09
2023-04-22T00:52:10.704Z,10.03
2023-04-22T01:07:12.350Z,9.75
2023-04-22T01:22:15.238Z,9.08
2023-04-22T01:37:18.088Z,9.96
2023-04-22T01:52:19.922Z,9.24
2023-04-22T02:07:21.533Z,9.58
2023-04-22T02:22:24.059Z,10.14
2023-04-22T02:37:25.767Z,9.16
2023-04-22T02:52:27.465Z,8.92
2023-04-22T03:07:29.125Z,8.84
2023-04-22T03:22:30.848Z,9.40
2023-04-22T03:37:32.563Z,9.26
2023-04-22T03:52:34.152Z,8.72
2023-04-22T04:07:35.742Z,8.82
2023-04-22T04:22:38.897Z,9.68
2023-04-22T04:37:43.288Z,10.93
2023-04-22T04:52:44.936Z,9.38
2023-04-22T05:07:46.693Z,11.64
2023-04-22T05:22:48.350Z,12.88
2023-04-22T05:37:50.047Z,13.52
2023-04-22T05:52:51.644Z,11.97
2023-04-22T06:07:53.297Z,13.65
2023-04-22T06:22:54.972Z,13.72
2023-04-22T06:37:56.871Z,13.64
2023-04-22T06:52:58.584Z,14.20
2023-04-22T07:08:00.222Z,14.16
2023-04-22T07:23:01.865Z,14.75
2023-04-22T07:38:03.965Z,15.18
2023-04-22T07:53:06.070Z,15.53
2023-04-22T08:08:08.127Z,16.13
2023-04-22T08:23:10.893Z,16.43
2023-04-22T08:38:12.554Z,16.61
2023-04-22T08:53:14.519Z,15.72
2023-04-22T09:08:16.215Z,16.74
2023-04-22T09:23:17.829Z,17.05
2023-04-22T09:38:20.678Z,17.13
2023-04-22T09:53:22.497Z,16.74
2023-04-22T10:08:24.137Z,16.90
2023-04-22T10:23:26.274Z,17.05
2023-04-22T10:38:27.922Z,16.91
2023-04-22T10:53:36.671Z,17.30
2023-04-22T11:08:38.334Z,17.63
2023-04-22T11:23:51.834Z,17.24
2023-04-22T11:38:57.285Z,16.66
2023-04-22T11:54:00.431Z,16.98
2023-04-22T12:09:02.589Z,15.79
2023-04-22T12:24:11.290Z,16.21
2023-04-22T12:39:13.077Z,15.59
2023-04-22T12:54:14.756Z,15.70
2023-04-22T13:09:16.676Z,16.26
2023-04-22T13:24:18.268Z,16.20
2023-04-22T13:39:19.919Z,16.00
2023-04-22T13:54:21.568Z,15.78
2023-04-22T14:09:23.220Z,15.16
2023-04-22T14:24:25.035Z,15.94
2023-04-22T14:39:26.705Z,15.59
2023-04-22T14:54:28.326Z,15.94
2023-04-22T15:09:29.994Z,16.10
2023-04-22T15:24:31.689Z,15.76
2023-04-22T15:39:33.540Z,15.80
2023-04-22T15:54:35.472Z,15.93
2023-04-22T16:09:37.094Z,16.04
2023-04-22T16:24:38.772Z,15.54
2023-04-22T16:39:40.726Z,15.48
2023-04-22T16:54:42.807Z,15.29
2023-04-22T17:09:44.468Z,14.63
2023-04-22T17:24:46.211Z,14.05
2023-04-22T17:39:47.854Z,14.17
2023-04-22T17:54:49.716Z,13.62
2023-04-22T18:09:51.425Z,13.93
2023-04-22T18:24:53.231Z,13.77
2023-04-22T18:39:54.914Z,13.41
2023-04-22T18:54:56.525Z,13.16
2023-04-22T19:09:58.187Z,13.42
2023-04-22T19:25:02.080Z,12.87
2023-04-22T19:40:04.457Z,12.74
2023-04-22T19:55:10.674Z,13.26
2023-04-22T20:10:13.770Z,11.81
2023-04-22T20:25:17.364Z,12.80
2023-04-22T20:40:20.380Z,11.42
2023-04-22T20:55:23.206Z,11.44
2023-04-22T21:10:25.285Z,12.01
2023-04-22T21:25:28.503Z,11.37
2023-04-22T21:40:30.168Z,11.29
2023-04-22T21:55:32.156Z,10.48
2023-04-22T22:10:33.965Z,10.18
2023-04-22T22:25:35.737Z,9.59
2023-04-22T22:40:37.453Z,9.69
2023-04-22T22:55:39.136Z,9.89
2023-04-22T23:10:40.811Z,10.13
2023-04-22T23:25:42.829Z,9.53
2023-04-22T23:40:44.456Z,7.96
2023-04-22T23:55:46.545Z,9.47
